createdAt,value
2023-01-04T00:01:21.125Z,11.90
2023-01-04T00:03:47.988Z,13.40
2023-01-04T00:06:15.654Z,11.05
2023-01-04T00:08:42.335Z,12.93
2023-01-04T00:11:12.295Z,13.52
2023-01-04T00:13:38.897Z,13.18
2023-01-04T00:16:08.458Z,13.75
2023-01-04T00:18:35.963Z,13.90
2023-01-04T00:21:20.119Z,10.95
2023-01-04T00:23:48.101Z,10.63
2023-01-04T00:26:16.272Z,13.57
2023-01-04T00:28:48.426Z,11.40
2023-01-04T00:31:18.628Z,12.02
2023-01-04T00:33:45.311Z,12.10
2023-01-04T00:36:12.910Z,16.10
2023-01-04T00:38:39.798Z,14.70
2023-01-04T00:41:06.834Z,12.77
2023-01-04T00:43:33.445Z,13.05
2023-01-04T00:46:01.259Z,12.40
2023-01-04T00:48:28.621Z,14.98
2023-01-04T00:50:55.333Z,13.40
2023-01-04T00:53:22.012Z,11.88
2023-01-04T00:55:48.671Z,13.95
2023-01-04T00:58:15.283Z,13.30
2023-01-04T01:00:41.880Z,11.48
2023-01-04T01:03:08.648Z,12.30
2023-01-04T01:05:35.491Z,12.63
2023-01-04T01:08:22.983Z,12.68
2023-01-04T01:10:49.652Z,13.40
2023-01-04T01:13:16.234Z,11.43
2023-01-04T01:15:42.920Z,12.52
2023-01-04T01:18:09.561Z,13.75
2023-01-04T01:20:40.344Z,13.25
2023-01-04T01:23:07.394Z,15.23
2023-01-04T01:25:34.250Z,16.45
2023-01-04T01:28:00.894Z,17.55
2023-01-04T01:30:27.562Z,16.30
2023-01-04T01:32:54.189Z,14.77
2023-01-04T01:35:20.798Z,11.90
2023-01-04T01:37:47.451Z,13.18
2023-01-04T01:40:14.250Z,12.95
2023-01-04T01:42:40.877Z,12.63
2023-01-04T01:45:26.705Z,14.48
2023-01-04T01:47:53.305Z,14.05
2023-01-04T01:50:24.855Z,12.57
2023-01-04T01:52:51.486Z,13.23
2023-01-04T01:55:18.247Z,11.02
2023-01-04T01:57:44.885Z,11.43
2023-01-04T02:00:13.794Z,14.32
2023-01-04T02:02:45.610Z,15.32
2023-01-04T02:05:12.291Z,12.65
2023-01-04T02:07:38.913Z,12.05
2023-01-04T02:10:06.069Z,11.50
2023-01-04T02:12:32.710Z,10.35
2023-01-04T02:14:59.306Z,14.30
2023-01-04T02:17:37.250Z,13.38
2023-01-04T02:20:25.349Z,14.02
2023-01-04T02:23:31.856Z,15.48
2023-01-04T02:26:27.638Z,17.75
2023-01-04T02:29:08.231Z,13.80
2023-01-04T02:31:39.835Z,18.33
2023-01-04T02:34:46.431Z,14.57
2023-01-04T02:37:50.831Z,11.73
2023-01-04T02:40:43.669Z,12.85
2023-01-04T02:43:47.457Z,11.43
2023-01-04T02:46:19.541Z,14.05
2023-01-04T02:49:06.106Z,13.68
2023-01-04T02:51:34.361Z,16.23
2023-01-04T02:54:04.141Z,14.80
2023-01-04T02:57:10.610Z,15.95
2023-01-04T03:00:15.427Z,15.90
2023-01-04T03:03:21.909Z,13.88
2023-01-04T03:06:18.208Z,13.30
2023-01-04T03:09:09.067Z,14.52
2023-01-04T03:12:07.359Z,12.13
2023-01-04T03:14:38.151Z,11.73
2023-01-04T03:17:07.218Z,13.20
2023-01-04T03:19:53.729Z,11.23
2023-01-04T03:22:54.631Z,13.57
2023-01-04T03:25:45.877Z,14.07
2023-01-04T03:28:33.493Z,13.60
2023-01-04T03:31:39.735Z,14.07
2023-01-04T03:34:26.360Z,13.23
2023-01-04T03:36:58.697Z,11.68
2023-01-04T03:43:26.122Z,16.85
2023-01-04T03:46:16.822Z,13.38
2023-01-04T03:48:47.535Z,13.07
2023-01-04T03:51:19.193Z,17.05
2023-01-04T03:54:07.119Z,17.40
2023-01-04T03:56:35.361Z,19.42
2023-01-04T03:59:02.033Z,14.93
2023-01-04T04:01:28.926Z,19.55
2023-01-04T04:04:15.836Z,15.93
2023-01-04T04:07:02.658Z,17.67
2023-01-04T04:09:29.303Z,15.52
2023-01-04T04:11:55.956Z,14.30
2023-01-04T04:14:22.573Z,14.23
2023-01-04T04:16:49.253Z,15.65
2023-01-04T04:19:15.853Z,13.45
2023-01-04T04:21:42.518Z,12.52
2023-01-04T04:24:16.014Z,16.63
2023-01-04T04:26:42.585Z,11.60
2023-01-04T04:29:09.151Z,12.50
2023-01-04T04:31:35.774Z,14.05
2023-01-04T04:34:02.666Z,12.30
2023-01-04T04:36:29.275Z,10.90
2023-01-04T04:38:55.881Z,7.45
2023-01-04T04:41:42.437Z,10.75
2023-01-04T04:44:11.128Z,9.18
2023-01-04T04:46:37.842Z,10.73
2023-01-04T04:49:04.803Z,10.18
2023-01-04T04:51:31.599Z,9.15
2023-01-04T04:53:58.232Z,10.40
2023-01-04T04:56:24.903Z,8.15
2023-01-04T04:58:51.515Z,6.70
2023-01-04T05:01:18.323Z,8.13
2023-01-04T05:03:45.168Z,6.82
2023-01-04T05:06:11.877Z,6.97
2023-01-04T05:08:38.541Z,7.63
2023-01-04T05:11:08.446Z,7.15
2023-01-04T05:13:35.256Z,8.00
2023-01-04T05:16:02.194Z,6.38
2023-01-04T05:18:28.810Z,6.97
2023-01-04T05:20:55.470Z,6.57
2023-01-04T05:23:22.148Z,6.93
2023-01-04T05:25:58.735Z,6.90
2023-01-04T05:28:25.433Z,7.82
2023-01-04T05:30:52.422Z,6.63
2023-01-04T05:33:24.683Z,6.05
2023-01-04T05:35:51.666Z,4.43
2023-01-04T05:38:18.404Z,11.88
2023-01-04T05:40:45.295Z,5.55
2023-01-04T05:43:13.746Z,5.97
2023-01-04T05:45:41.493Z,5.45
2023-01-04T05:48:08.213Z,6.25
2023-01-04T05:50:34.839Z,6.53
2023-01-04T05:53:01.460Z,6.38
2023-01-04T05:55:28.079Z,6.70
2023-01-04T05:57:54.648Z,5.72
2023-01-04T06:00:21.287Z,6.63
2023-01-04T06:02:48.022Z,5.63
2023-01-04T06:05:15.005Z,5.32
2023-01-04T06:07:41.676Z,6.20
2023-01-04T06:10:08.861Z,6.10
2023-01-04T06:12:38.644Z,4.80
2023-01-04T06:15:05.964Z,5.05
2023-01-04T06:17:32.843Z,4.28
2023-01-04T06:19:59.503Z,4.15
2023-01-04T06:22:28.066Z,5.90
2023-01-04T06:24:54.717Z,5.80
2023-01-04T06:27:21.389Z,4.85
2023-01-04T06:29:48.043Z,4.78
2023-01-04T06:32:14.739Z,3.90
2023-01-04T06:34:41.333Z,3.38
2023-01-04T06:37:07.977Z,3.38
2023-01-04T06:39:34.587Z,2.83
2023-01-04T06:42:06.328Z,3.97
2023-01-04T06:44:33.795Z,3.67
2023-01-04T06:47:00.471Z,3.90
2023-01-04T06:49:27.129Z,3.80
2023-01-04T06:51:53.777Z,5.32
2023-01-04T06:54:20.370Z,6.55
2023-01-04T06:56:47.002Z,4.15
2023-01-04T06:59:13.636Z,3.80
2023-01-04T07:01:40.367Z,3.83
2023-01-04T07:04:07.093Z,3.33
2023-01-04T07:06:33.795Z,3.72
2023-01-04T07:09:00.399Z,3.42
2023-01-04T07:11:27.034Z,3.85
2023-01-04T07:13:53.656Z,4.15
2023-01-04T07:16:20.634Z,3.72
2023-01-04T07:18:47.642Z,5.75
2023-01-04T07:21:14.619Z,4.20
2023-01-04T07:23:41.282Z,4.20
2023-01-04T07:26:07.904Z,3.78
2023-01-04T07:28:54.456Z,3.83
2023-01-04T07:31:21.257Z,4.28
2023-01-04T07:33:50.734Z,3.22
2023-01-04T07:36:17.351Z,5.50
2023-01-04T07:38:44.035Z,6.63
2023-01-04T07:41:10.632Z,3.72
2023-01-04T07:43:37.281Z,2.97
2023-01-04T07:46:04.180Z,3.80
2023-01-04T07:48:30.827Z,3.97
2023-01-04T07:50:57.480Z,2.80
2023-01-04T07:53:24.039Z,3.28
2023-01-04T07:55:55.940Z,4.10
2023-01-04T07:58:22.521Z,9.50
2023-01-04T08:00:49.233Z,4.93
2023-01-04T08:03:15.807Z,3.78
2023-01-04T08:05:42.429Z,4.93
2023-01-04T08:08:09.063Z,8.35
2023-01-04T08:10:36.192Z,3.10
2023-01-04T08:13:02.852Z,3.10
2023-01-04T08:15:29.542Z,3.42
2023-01-04T08:17:56.472Z,3.47
2023-01-04T08:20:23.255Z,3.50
2023-01-04T08:22:49.888Z,5.03
2023-01-04T08:25:16.578Z,3.55
2023-01-04T08:27:43.369Z,3.15
2023-01-04T08:30:10.377Z,4.03
2023-01-04T08:32:37.052Z,3.15
2023-01-04T08:35:03.845Z,4.78
2023-01-04T08:37:31.872Z,3.78
2023-01-04T08:39:58.471Z,5.03
2023-01-04T08:42:31.075Z,3.40
2023-01-04T08:45:01.062Z,4.60
2023-01-04T08:47:29.264Z,3.30
2023-01-04T08:49:56.002Z,4.68
2023-01-04T08:52:22.688Z,2.33
2023-01-04T08:54:49.585Z,2.75
2023-01-04T08:57:17.063Z,2.22
2023-01-04T08:59:43.721Z,3.10
2023-01-04T09:02:26.486Z,2.42
2023-01-04T09:07:28.430Z,2.75
2023-01-04T09:09:55.072Z,3.65
2023-01-04T09:12:21.905Z,3.88
2023-01-04T09:14:48.525Z,5.95
2023-01-04T09:17:15.360Z,3.85
2023-01-04T09:19:42.008Z,2.08
2023-01-04T09:22:09.397Z,5.75
2023-01-04T09:24:36.049Z,3.75
2023-01-04T09:27:04.514Z,1.90
2023-01-04T09:29:31.158Z,4.47
2023-01-04T09:31:57.854Z,1.77
2023-01-04T09:34:24.625Z,3.60
2023-01-04T09:36:52.257Z,5.80
2023-01-04T09:39:23.205Z,4.82
2023-01-04T09:42:03.742Z,3.92
2023-01-04T09:47:40.453Z,4.72
2023-01-04T09:53:02.419Z,5.87
2023-01-04T09:55:37.112Z,6.03
2023-01-04T09:58:12.719Z,4.32
2023-01-04T10:00:44.539Z,4.55
2023-01-04T10:03:19.102Z,4.47
2023-01-04T10:05:45.859Z,4.50
2023-01-04T10:08:17.436Z,4.13
2023-01-04T10:11:23.868Z,1.63
2023-01-04T10:14:19.010Z,7.10
2023-01-04T10:23:40.741Z,1.92
2023-01-04T10:26:15.227Z,2.88
2023-01-04T10:29:26.679Z,5.75
2023-01-04T10:32:16.295Z,1.58
2023-01-04T10:34:44.287Z,2.70
2023-01-04T10:37:21.686Z,5.25
2023-01-04T10:39:52.956Z,1.40
2023-01-04T10:42:37.310Z,4.22
2023-01-04T10:45:20.919Z,1.25
2023-01-04T10:48:18.744Z,1.60
2023-01-04T10:51:02.083Z,5.13
2023-01-04T10:53:46.608Z,1.60
2023-01-04T10:56:26.335Z,4.13
2023-01-04T10:59:19.974Z,2.00
2023-01-04T11:01:50.894Z,2.35
2023-01-04T11:07:05.596Z,2.70
2023-01-04T11:09:40.517Z,1.08
2023-01-04T11:12:07.103Z,1.75
2023-01-04T11:14:37.412Z,1.33
2023-01-04T11:17:05.609Z,2.05
2023-01-04T11:19:32.215Z,2.05
2023-01-04T11:25:32.979Z,1.42
2023-01-04T11:27:48.524Z,5.55
2023-01-04T11:30:22.141Z,2.03
2023-01-04T11:33:02.967Z,1.42
2023-01-04T11:35:45.240Z,3.45
2023-01-04T11:38:14.173Z,1.55
2023-01-04T11:40:41.251Z,4.80
2023-01-04T11:43:16.333Z,3.42
2023-01-04T11:45:53.499Z,1.63
2023-01-04T11:48:20.580Z,3.72
2023-01-04T11:50:47.794Z,7.03
2023-01-04T11:53:31.789Z,4.90
2023-01-04T11:56:17.439Z,3.17
2023-01-04T11:58:45.313Z,1.13
2023-01-04T12:01:20.656Z,1.13
2023-01-04T12:03:47.298Z,1.20
2023-01-04T12:06:35.572Z,0.50
2023-01-04T12:09:02.399Z,1.15
2023-01-04T12:11:31.095Z,1.75
2023-01-04T12:13:59.524Z,0.98
2023-01-04T12:16:50.715Z,1.20
2023-01-04T12:19:17.757Z,1.33
2023-01-04T12:21:46.161Z,0.95
2023-01-04T12:24:18.405Z,3.20
2023-01-04T12:26:45.189Z,0.98
2023-01-04T12:29:32.592Z,2.70
2023-01-04T12:32:17.022Z,1.08
2023-01-04T12:34:44.796Z,2.35
2023-01-04T12:37:31.940Z,1.65
2023-01-04T12:39:58.595Z,0.93
2023-01-04T12:42:26.943Z,1.98
2023-01-04T12:44:57.150Z,4.63
2023-01-04T12:50:13.977Z,0.68
2023-01-04T13:03:47.909Z,2.88
2023-01-04T13:06:14.585Z,1.65
2023-01-04T13:08:41.724Z,2.72
2023-01-04T13:11:41.820Z,0.60
2023-01-04T13:14:10.070Z,2.15
2023-01-04T13:16:45.988Z,1.02
2023-01-04T13:19:20.597Z,1.25
2023-01-04T13:21:47.492Z,1.20
2023-01-04T13:24:35.867Z,1.77
2023-01-04T13:27:07.790Z,1.08
2023-01-04T13:29:35.173Z,1.35
2023-01-04T13:32:25.278Z,3.70
2023-01-04T13:34:55.505Z,0.68
2023-01-04T13:37:26.887Z,0.60
2023-01-04T13:42:43.467Z,0.60
2023-01-04T13:45:50.360Z,1.63
2023-01-04T13:48:19.420Z,1.20
2023-01-04T13:50:58.126Z,1.08
2023-01-04T13:53:25.889Z,0.52
2023-01-04T13:55:57.545Z,3.97
2023-01-04T13:58:25.929Z,2.17
2023-01-04T14:01:07.903Z,0.73
2023-01-04T14:03:43.261Z,3.97
2023-01-04T14:08:51.344Z,4.13
2023-01-04T14:12:06.058Z,0.82
2023-01-04T14:14:55.311Z,2.47
2023-01-04T14:17:56.962Z,1.05
2023-01-04T14:23:05.030Z,0.40
2023-01-04T14:33:44.941Z,1.05
2023-01-04T14:36:30.392Z,3.33
2023-01-04T14:39:12.955Z,1.25
2023-01-04T14:41:52.438Z,0.82
2023-01-04T14:44:20.831Z,1.38
2023-01-04T14:46:49.578Z,1.27
2023-01-04T14:49:16.524Z,2.97
2023-01-04T14:51:46.416Z,3.75
2023-01-04T14:54:17.449Z,1.77
2023-01-04T14:56:47.205Z,2.72
2023-01-04T14:59:13.796Z,1.48
2023-01-04T15:01:40.703Z,1.85
2023-01-04T15:04:07.420Z,1.23
2023-01-04T15:06:34.256Z,1.27
2023-01-04T15:09:00.991Z,1.67
2023-01-04T15:11:28.857Z,0.43
2023-01-04T15:13:55.482Z,1.73
2023-01-04T15:16:22.209Z,2.05
2023-01-04T15:18:48.913Z,1.05
2023-01-04T15:21:15.542Z,1.67
2023-01-04T15:23:42.187Z,0.95
2023-01-04T15:26:09.919Z,1.52
2023-01-04T15:28:36.713Z,2.25
2023-01-04T15:31:08.377Z,1.92
2023-01-04T15:33:35.525Z,1.00
2023-01-04T15:36:05.803Z,2.00
2023-01-04T15:38:32.726Z,2.88
2023-01-04T15:41:00.877Z,2.20
2023-01-04T15:43:31.225Z,1.33
2023-01-04T15:46:07.051Z,1.02
2023-01-04T15:48:35.182Z,0.85
2023-01-04T15:51:03.592Z,1.52
2023-01-04T15:53:30.242Z,2.92
2023-01-04T15:56:04.533Z,1.15
2023-01-04T15:58:31.113Z,1.30
2023-01-04T16:01:05.813Z,2.40
2023-01-04T16:03:35.198Z,1.08
2023-01-04T16:06:11.227Z,0.85
2023-01-04T16:08:37.876Z,3.47
2023-01-04T16:11:10.066Z,1.38
2023-01-04T16:13:36.727Z,2.10
2023-01-04T16:16:03.456Z,1.33
2023-01-04T16:18:32.553Z,1.08
2023-01-04T16:20:59.756Z,3.10
2023-01-04T16:23:27.075Z,1.67
2023-01-04T16:26:11.651Z,1.77
2023-01-04T16:28:38.445Z,1.92
2023-01-04T16:31:05.447Z,0.80
2023-01-04T16:33:32.227Z,0.80
2023-01-04T16:36:00.400Z,1.13
2023-01-04T16:38:27.388Z,3.78
2023-01-04T16:40:59.241Z,2.33
2023-01-04T16:43:26.175Z,1.27
2023-01-04T16:46:15.289Z,0.30
2023-01-04T16:48:43.914Z,2.10
2023-01-04T16:51:10.720Z,0.93
2023-01-04T16:53:37.634Z,1.98
2023-01-04T16:56:08.459Z,0.35
2023-01-04T16:58:35.298Z,1.52
2023-01-04T17:01:25.114Z,1.27
2023-01-04T17:03:54.897Z,1.10
2023-01-04T17:06:23.256Z,0.50
2023-01-04T17:08:51.443Z,1.63
2023-01-04T17:12:11.311Z,0.98
2023-01-04T17:14:08.063Z,1.55
2023-01-04T17:16:35.423Z,0.35
2023-01-04T17:19:02.089Z,0.82
2023-01-04T17:21:34.263Z,0.90
2023-01-04T17:24:02.215Z,1.23
2023-01-04T17:26:30.122Z,0.50
2023-01-04T17:28:57.358Z,0.60
2023-01-04T17:31:25.866Z,0.82
2023-01-04T17:33:52.600Z,3.30
2023-01-04T17:36:19.918Z,0.85
2023-01-04T17:38:46.752Z,2.03
2023-01-04T17:44:00.172Z,0.60
2023-01-04T17:46:27.877Z,0.60
2023-01-04T17:49:21.021Z,0.47
2023-01-04T17:51:41.358Z,0.32
2023-01-04T17:54:10.771Z,0.82
2023-01-04T17:56:37.728Z,0.50
2023-01-04T17:59:06.561Z,0.80
2023-01-04T18:01:33.578Z,5.22
2023-01-04T18:04:00.698Z,3.95
2023-01-04T18:06:30.450Z,0.60
2023-01-04T18:08:57.413Z,0.30
2023-01-04T18:11:24.254Z,0.50
2023-01-04T18:13:51.194Z,0.32
2023-01-04T18:16:24.466Z,0.40
2023-01-04T18:18:53.113Z,2.53
2023-01-04T18:21:30.043Z,0.70
2023-01-04T18:29:31.843Z,0.50
2023-01-04T18:31:58.563Z,0.50
2023-01-04T18:34:26.546Z,0.77
2023-01-04T18:36:53.486Z,1.45
2023-01-04T18:39:20.185Z,0.85
2023-01-04T18:41:46.899Z,1.05
2023-01-04T18:47:01.820Z,1.45
2023-01-04T18:49:28.429Z,0.88
2023-01-04T18:51:55.107Z,0.68
2023-01-04T18:54:22.045Z,2.53
2023-01-04T18:56:48.932Z,0.82
2023-01-04T18:59:17.310Z,0.63
2023-01-04T19:01:45.301Z,2.08
2023-01-04T19:04:12.630Z,1.02
2023-01-04T19:06:40.358Z,2.20
2023-01-04T19:09:07.437Z,0.90
2023-01-04T19:11:34.501Z,0.75
2023-01-04T19:14:01.285Z,2.05
2023-01-04T19:16:31.733Z,1.65
2023-01-04T19:18:59.958Z,1.52
2023-01-04T19:21:27.145Z,1.80
2023-01-04T19:23:54.002Z,2.92
2023-01-04T19:26:21.269Z,2.83
2023-01-04T19:28:48.009Z,1.45
2023-01-04T19:31:14.998Z,1.20
2023-01-04T19:33:41.776Z,0.85
2023-01-04T19:36:10.010Z,0.60
2023-01-04T19:38:36.879Z,1.95
2023-01-04T19:41:03.825Z,1.30
2023-01-04T19:43:30.445Z,1.98
2023-01-04T19:45:57.101Z,3.25
2023-01-04T19:48:23.903Z,0.82
2023-01-04T19:51:06.853Z,0.65
2023-01-04T19:55:59.943Z,1.45
2023-01-04T19:58:26.576Z,0.93
2023-01-04T20:00:55.065Z,0.68
2023-01-04T20:03:22.617Z,1.50
2023-01-04T20:05:49.983Z,1.35
2023-01-04T20:08:16.654Z,0.70
2023-01-04T20:10:43.347Z,1.20
2023-01-04T20:13:10.082Z,0.52
2023-01-04T20:15:39.323Z,1.77
2023-01-04T20:18:13.435Z,1.30
2023-01-04T20:20:43.605Z,1.48
2023-01-04T20:23:10.417Z,1.08
2023-01-04T20:25:39.756Z,1.13
2023-01-04T20:28:06.427Z,1.05
2023-01-04T20:30:33.195Z,1.23
2023-01-04T20:32:59.811Z,2.63
2023-01-04T20:35:26.413Z,0.90
2023-01-04T20:37:56.476Z,0.40
2023-01-04T20:40:24.164Z,0.90
2023-01-04T20:43:10.884Z,0.90
2023-01-04T20:45:45.546Z,1.17
2023-01-04T20:48:12.686Z,1.10
2023-01-04T20:50:39.464Z,0.90
2023-01-04T20:53:06.061Z,1.15
2023-01-04T20:55:32.730Z,1.60
2023-01-04T20:57:59.412Z,0.90
2023-01-04T21:00:26.049Z,0.55
2023-01-04T21:02:52.800Z,1.48
2023-01-04T21:05:19.738Z,0.50
2023-01-04T21:07:46.489Z,0.80
2023-01-04T21:10:13.121Z,0.30
2023-01-04T21:12:39.752Z,1.05
2023-01-04T21:15:06.613Z,0.40
2023-01-04T21:17:33.209Z,2.90
2023-01-04T21:19:59.783Z,0.50
2023-01-04T21:22:26.795Z,0.63
2023-01-04T21:24:53.502Z,0.50
2023-01-04T21:27:20.076Z,0.45
2023-01-04T21:29:46.693Z,0.77
2023-01-04T21:32:13.299Z,2.50
2023-01-04T21:34:39.896Z,1.67
2023-01-04T21:37:06.493Z,0.90
2023-01-04T21:39:33.308Z,0.20
2023-01-04T21:41:59.904Z,1.52
2023-01-04T21:44:26.670Z,0.32
2023-01-04T21:46:53.293Z,1.63
2023-01-04T21:49:20.055Z,0.80
2023-01-04T21:51:46.661Z,0.88
2023-01-04T21:54:13.545Z,0.50
2023-01-04T21:56:40.153Z,0.50
2023-01-04T21:59:06.809Z,0.93
2023-01-04T22:01:35.334Z,0.68
2023-01-04T22:04:02.877Z,0.25
2023-01-04T22:06:29.685Z,4.72
2023-01-04T22:08:56.349Z,0.50
2023-01-04T22:11:23.030Z,1.00
2023-01-04T22:13:50.502Z,0.52
2023-01-04T22:16:17.508Z,0.38
2023-01-04T22:18:48.083Z,0.80
2023-01-04T22:21:15.613Z,0.75
2023-01-04T22:23:42.244Z,1.52
2023-01-04T22:26:08.881Z,0.43
2023-01-04T22:28:37.276Z,0.30
2023-01-04T22:31:05.852Z,0.38
2023-01-04T22:33:33.624Z,1.35
2023-01-04T22:36:04.121Z,0.57
2023-01-04T22:38:30.818Z,1.02
2023-01-04T22:40:57.387Z,0.40
2023-01-04T22:43:23.969Z,1.38
2023-01-04T22:45:50.552Z,1.15
2023-01-04T22:48:17.166Z,1.90
2023-01-04T22:50:43.760Z,0.57
2023-01-04T22:53:10.358Z,0.40
2023-01-04T22:56:17.087Z,0.95
2023-01-04T22:58:26.611Z,0.60
2023-01-04T23:00:53.193Z,0.40
2023-01-04T23:03:20.027Z,0.40
2023-01-04T23:05:46.763Z,0.77
2023-01-04T23:08:13.402Z,1.02
2023-01-04T23:10:39.999Z,0.50
2023-01-04T23:13:06.609Z,0.68
2023-01-04T23:15:33.183Z,0.93
2023-01-04T23:17:59.824Z,0.88
2023-01-04T23:20:26.478Z,2.15
2023-01-04T23:22:53.119Z,1.05
2023-01-04T23:25:19.810Z,0.30
2023-01-04T23:27:46.506Z,0.50
2023-01-04T23:30:13.928Z,0.40
2023-01-04T23:32:40.641Z,0.73
2023-01-04T23:35:07.672Z,0.50
2023-01-04T23:37:34.235Z,0.70
2023-01-04T23:40:00.922Z,1.33
2023-01-04T23:42:27.517Z,0.32
2023-01-04T23:44:54.150Z,0.43
2023-01-04T23:47:20.736Z,1.05
2023-01-04T23:49:47.350Z,0.70
2023-01-04T23:52:14.002Z,0.60
2023-01-04T23:54:40.671Z,0.40
2023-01-04T23:57:07.265Z,0.73
2023-01-04T23:59:34.007Z,1.00
